ěÝzenÝ letovÚho provozu ╚eskÚ republiky
Letiste: LKPJ Aktualizace: 07.04.2020 02:00:27  UTC
 METAR LKPJ 07.04. 02:00 ...
METAR LKPJ 070200Z AUTO 31003KT CAVOK 02/M03 Q1031=